sensor_id;sensor_type;location;lat;lon;timestamp;P1;durP1;ratioP1;P2;durP2;ratioP2
13255;SDS011;37913;48.370;10.930;2023-07-20T00:00:14;90.47;;;44.67;;
13255;SDS011;37913;48.370;10.930;2023-07-20T00:02:42;87.15;;;43.88;;
13255;SDS011;37913;48.370;10.930;2023-07-20T00:05:09;89.35;;;44.42;;
13255;SDS011;37913;48.370;10.930;2023-07-20T00:07:36;92.10;;;44.75;;
13255;SDS011;37913;48.370;10.930;2023-07-20T00:10:03;92.35;;;44.53;;
13255;SDS011;37913;48.370;10.930;2023-07-20T00:12:31;73.28;;;40.88;;
13255;SDS011;37913;48.370;10.930;2023-07-20T00:14:57;98.47;;;45.42;;
13255;SDS011;37913;48.370;10.930;2023-07-20T00:17:24;86.13;;;43.10;;
13255;SDS011;37913;48.370;10.930;2023-07-20T00:19:53;89.88;;;42.72;;
13255;SDS011;37913;48.370;10.930;2023-07-20T00:22:19;88.40;;;42.45;;
13255;SDS011;37913;48.370;10.930;2023-07-20T00:24:45;88.28;;;43.45;;
13255;SDS011;37913;48.370;10.930;2023-07-20T00:27:12;83.97;;;42.70;;
13255;SDS011;37913;48.370;10.930;2023-07-20T00:29:39;80.68;;;41.88;;
13255;SDS011;37913;48.370;10.930;2023-07-20T00:32:06;83.15;;;42.63;;
13255;SDS011;37913;48.370;10.930;2023-07-20T00:34:33;86.18;;;42.67;;
13255;SDS011;37913;48.370;10.930;2023-07-20T00:37:02;91.10;;;43.72;;
13255;SDS011;37913;48.370;10.930;2023-07-20T00:39:29;94.20;;;44.70;;
13255;SDS011;37913;48.370;10.930;2023-07-20T00:41:56;88.30;;;43.28;;
13255;SDS011;37913;48.370;10.930;2023-07-20T00:44:23;91.65;;;43.83;;
13255;SDS011;37913;48.370;10.930;2023-07-20T00:46:50;91.60;;;43.95;;
13255;SDS011;37913;48.370;10.930;2023-07-20T00:49:17;91.75;;;44.20;;
13255;SDS011;37913;48.370;10.930;2023-07-20T00:51:46;88.68;;;43.25;;
13255;SDS011;37913;48.370;10.930;2023-07-20T00:54:16;85.05;;;42.60;;
13255;SDS011;37913;48.370;10.930;2023-07-20T00:56:43;84.95;;;42.58;;
13255;SDS011;37913;48.370;10.930;2023-07-20T00:59:10;78.85;;;41.80;;
13255;SDS011;37913;48.370;10.930;2023-07-20T01:01:37;92.10;;;44.00;;
13255;SDS011;37913;48.370;10.930;2023-07-20T01:04:04;80.60;;;41.70;;
13255;SDS011;37913;48.370;10.930;2023-07-20T01:06:35;85.22;;;42.55;;
13255;SDS011;37913;48.370;10.930;2023-07-20T01:09:08;82.25;;;41.38;;
13255;SDS011;37913;48.370;10.930;2023-07-20T01:11:46;87.68;;;43.28;;
13255;SDS011;37913;48.370;10.930;2023-07-20T01:14:18;82.95;;;42.10;;
13255;SDS011;37913;48.370;10.930;2023-07-20T01:16:46;85.53;;;42.85;;
13255;SDS011;37913;48.370;10.930;2023-07-20T01:19:14;86.57;;;42.40;;
13255;SDS011;37913;48.370;10.930;2023-07-20T01:21:43;86.00;;;43.22;;
13255;SDS011;37913;48.370;10.930;2023-07-20T01:24:31;88.88;;;43.30;;
13255;SDS011;37913;48.370;10.930;2023-07-20T01:27:20;77.68;;;41.00;;
13255;SDS011;37913;48.370;10.930;2023-07-20T01:30:03;79.13;;;41.00;;
13255;SDS011;37913;48.370;10.930;2023-07-20T01:32:43;82.60;;;42.05;;
13255;SDS011;37913;48.370;10.930;2023-07-20T01:35:13;90.15;;;43.13;;
13255;SDS011;37913;48.370;10.930;2023-07-20T01:37:42;91.03;;;43.15;;
13255;SDS011;37913;48.370;10.930;2023-07-20T01:40:11;85.43;;;41.88;;
13255;SDS011;37913;48.370;10.930;2023-07-20T01:42:43;85.13;;;41.85;;
13255;SDS011;37913;48.370;10.930;2023-07-20T01:45:11;88.50;;;42.17;;
13255;SDS011;37913;48.370;10.930;2023-07-20T01:47:38;94.10;;;43.45;;
13255;SDS011;37913;48.370;10.930;2023-07-20T01:50:07;85.60;;;42.22;;
13255;SDS011;37913;48.370;10.930;2023-07-20T01:52:34;88.00;;;42.55;;
13255;SDS011;37913;48.370;10.930;2023-07-20T01:55:01;88.80;;;42.88;;
13255;SDS011;37913;48.370;10.930;2023-07-20T01:57:29;92.78;;;43.03;;
13255;SDS011;37913;48.370;10.930;2023-07-20T01:59:56;95.57;;;43.92;;
13255;SDS011;37913;48.370;10.930;2023-07-20T02:02:23;91.57;;;43.03;;
13255;SDS011;37913;48.370;10.930;2023-07-20T02:04:53;84.78;;;42.00;;
13255;SDS011;37913;48.370;10.930;2023-07-20T02:07:21;81.78;;;41.13;;
13255;SDS011;37913;48.370;10.930;2023-07-20T02:09:48;94.43;;;43.80;;
13255;SDS011;37913;48.370;10.930;2023-07-20T02:12:15;77.65;;;40.80;;
13255;SDS011;37913;48.370;10.930;2023-07-20T02:14:42;85.20;;;41.65;;
13255;SDS011;37913;48.370;10.930;2023-07-20T02:17:09;86.53;;;41.85;;
13255;SDS011;37913;48.370;10.930;2023-07-20T02:19:36;88.45;;;42.35;;
13255;SDS011;37913;48.370;10.930;2023-07-20T02:22:04;86.88;;;41.70;;
13255;SDS011;37913;48.370;10.930;2023-07-20T02:24:33;92.63;;;42.85;;
13255;SDS011;37913;48.370;10.930;2023-07-20T02:27:00;80.20;;;39.88;;
13255;SDS011;37913;48.370;10.930;2023-07-20T02:29:27;92.18;;;42.75;;
13255;SDS011;37913;48.370;10.930;2023-07-20T02:31:54;86.40;;;41.65;;
13255;SDS011;37913;48.370;10.930;2023-07-20T02:34:21;91.88;;;42.78;;
13255;SDS011;37913;48.370;10.930;2023-07-20T02:36:49;82.78;;;41.53;;
13255;SDS011;37913;48.370;10.930;2023-07-20T02:39:16;85.50;;;41.42;;
13255;SDS011;37913;48.370;10.930;2023-07-20T02:41:44;86.60;;;41.25;;
13255;SDS011;37913;48.370;10.930;2023-07-20T02:44:11;92.45;;;42.38;;
13255;SDS011;37913;48.370;10.930;2023-07-20T02:46:38;90.03;;;42.40;;
13255;SDS011;37913;48.370;10.930;2023-07-20T02:49:05;74.20;;;39.50;;
13255;SDS011;37913;48.370;10.930;2023-07-20T02:51:32;84.50;;;41.00;;
13255;SDS011;37913;48.370;10.930;2023-07-20T02:53:59;95.75;;;43.20;;
13255;SDS011;37913;48.370;10.930;2023-07-20T02:56:26;89.53;;;42.35;;
13255;SDS011;37913;48.370;10.930;2023-07-20T02:58:54;85.45;;;41.30;;
13255;SDS011;37913;48.370;10.930;2023-07-20T03:01:22;81.40;;;40.00;;
13255;SDS011;37913;48.370;10.930;2023-07-20T03:03:49;81.63;;;40.20;;
13255;SDS011;37913;48.370;10.930;2023-07-20T03:06:16;83.72;;;40.63;;
13255;SDS011;37913;48.370;10.930;2023-07-20T03:08:43;80.85;;;40.10;;
13255;SDS011;37913;48.370;10.930;2023-07-20T03:11:12;84.13;;;40.65;;
13255;SDS011;37913;48.370;10.930;2023-07-20T03:13:40;83.15;;;40.70;;
13255;SDS011;37913;48.370;10.930;2023-07-20T03:16:10;82.85;;;41.15;;
13255;SDS011;37913;48.370;10.930;2023-07-20T03:18:37;83.00;;;41.03;;
13255;SDS011;37913;48.370;10.930;2023-07-20T03:21:04;83.85;;;40.85;;
13255;SDS011;37913;48.370;10.930;2023-07-20T03:23:32;97.78;;;42.53;;
13255;SDS011;37913;48.370;10.930;2023-07-20T03:25:59;80.82;;;40.33;;
13255;SDS011;37913;48.370;10.930;2023-07-20T03:28:26;80.65;;;40.35;;
13255;SDS011;37913;48.370;10.930;2023-07-20T03:30:53;97.68;;;42.80;;
13255;SDS011;37913;48.370;10.930;2023-07-20T03:33:24;95.45;;;42.75;;
13255;SDS011;37913;48.370;10.930;2023-07-20T03:35:53;80.18;;;40.63;;
13255;SDS011;37913;48.370;10.930;2023-07-20T03:38:20;87.70;;;41.83;;
13255;SDS011;37913;48.370;10.930;2023-07-20T03:40:50;79.45;;;40.35;;
13255;SDS011;37913;48.370;10.930;2023-07-20T03:43:17;96.22;;;43.78;;
13255;SDS011;37913;48.370;10.930;2023-07-20T03:45:44;81.72;;;40.70;;
13255;SDS011;37913;48.370;10.930;2023-07-20T03:48:12;69.72;;;38.58;;
13255;SDS011;37913;48.370;10.930;2023-07-20T03:50:41;90.80;;;42.50;;
13255;SDS011;37913;48.370;10.930;2023-07-20T03:53:08;79.13;;;39.97;;
13255;SDS011;37913;48.370;10.930;2023-07-20T03:55:35;88.50;;;41.95;;
13255;SDS011;37913;48.370;10.930;2023-07-20T03:58:02;91.50;;;42.35;;
13255;SDS011;37913;48.370;10.930;2023-07-20T04:00:29;89.30;;;41.88;;
13255;SDS011;37913;48.370;10.930;2023-07-20T04:02:57;101.10;;;44.17;;
13255;SDS011;37913;48.370;10.930;2023-07-20T04:05:24;87.88;;;41.92;;
13255;SDS011;37913;48.370;10.930;2023-07-20T04:07:52;87.82;;;42.17;;
13255;SDS011;37913;48.370;10.930;2023-07-20T04:10:19;91.07;;;42.25;;
13255;SDS011;37913;48.370;10.930;2023-07-20T04:12:46;89.60;;;42.03;;
13255;SDS011;37913;48.370;10.930;2023-07-20T04:15:13;86.88;;;41.38;;
13255;SDS011;37913;48.370;10.930;2023-07-20T04:17:40;91.90;;;42.53;;
13255;SDS011;37913;48.370;10.930;2023-07-20T04:20:07;102.22;;;44.40;;
13255;SDS011;37913;48.370;10.930;2023-07-20T04:22:34;84.43;;;41.25;;
13255;SDS011;37913;48.370;10.930;2023-07-20T04:25:03;93.88;;;43.20;;
13255;SDS011;37913;48.370;10.930;2023-07-20T04:27:30;85.38;;;41.33;;
13255;SDS011;37913;48.370;10.930;2023-07-20T04:29:57;87.20;;;41.95;;
13255;SDS011;37913;48.370;10.930;2023-07-20T04:32:25;87.03;;;40.50;;
13255;SDS011;37913;48.370;10.930;2023-07-20T04:34:52;85.28;;;41.03;;
13255;SDS011;37913;48.370;10.930;2023-07-20T04:37:19;87.90;;;42.22;;
13255;SDS011;37913;48.370;10.930;2023-07-20T04:39:46;82.20;;;41.13;;
13255;SDS011;37913;48.370;10.930;2023-07-20T04:42:14;84.53;;;41.30;;
13255;SDS011;37913;48.370;10.930;2023-07-20T04:44:41;83.80;;;41.08;;
13255;SDS011;37913;48.370;10.930;2023-07-20T04:47:08;90.55;;;41.40;;
13255;SDS011;37913;48.370;10.930;2023-07-20T04:49:35;85.03;;;41.88;;
13255;SDS011;37913;48.370;10.930;2023-07-20T04:52:02;81.32;;;39.90;;
13255;SDS011;37913;48.370;10.930;2023-07-20T04:54:29;80.13;;;40.58;;
13255;SDS011;37913;48.370;10.930;2023-07-20T04:56:56;70.60;;;38.95;;
13255;SDS011;37913;48.370;10.930;2023-07-20T04:59:25;94.78;;;43.30;;
13255;SDS011;37913;48.370;10.930;2023-07-20T05:01:51;81.57;;;40.67;;
13255;SDS011;37913;48.370;10.930;2023-07-20T05:04:18;78.60;;;40.13;;
13255;SDS011;37913;48.370;10.930;2023-07-20T05:06:45;89.72;;;42.42;;
13255;SDS011;37913;48.370;10.930;2023-07-20T05:09:12;89.35;;;42.63;;
13255;SDS011;37913;48.370;10.930;2023-07-20T05:11:39;92.40;;;43.60;;
13255;SDS011;37913;48.370;10.930;2023-07-20T05:14:06;91.72;;;43.63;;
13255;SDS011;37913;48.370;10.930;2023-07-20T05:16:35;93.82;;;43.13;;
13255;SDS011;37913;48.370;10.930;2023-07-20T05:19:02;88.03;;;41.97;;
13255;SDS011;37913;48.370;10.930;2023-07-20T05:21:29;83.13;;;41.58;;
13255;SDS011;37913;48.370;10.930;2023-07-20T05:23:56;104.35;;;46.63;;
13255;SDS011;37913;48.370;10.930;2023-07-20T05:26:23;91.93;;;43.35;;
13255;SDS011;37913;48.370;10.930;2023-07-20T05:28:50;76.35;;;40.58;;
13255;SDS011;37913;48.370;10.930;2023-07-20T05:31:16;87.45;;;42.65;;
13255;SDS011;37913;48.370;10.930;2023-07-20T05:33:46;88.28;;;43.53;;
13255;SDS011;37913;48.370;10.930;2023-07-20T05:36:13;84.65;;;42.17;;
13255;SDS011;37913;48.370;10.930;2023-07-20T05:38:40;85.63;;;42.47;;
13255;SDS011;37913;48.370;10.930;2023-07-20T05:41:06;92.28;;;43.47;;
13255;SDS011;37913;48.370;10.930;2023-07-20T05:43:35;99.80;;;44.58;;
13255;SDS011;37913;48.370;10.930;2023-07-20T05:46:02;88.88;;;42.13;;
13255;SDS011;37913;48.370;10.930;2023-07-20T05:48:30;82.72;;;41.95;;
13255;SDS011;37913;48.370;10.930;2023-07-20T05:50:59;96.03;;;43.08;;
13255;SDS011;37913;48.370;10.930;2023-07-20T05:53:26;110.20;;;47.78;;
13255;SDS011;37913;48.370;10.930;2023-07-20T05:55:53;95.05;;;44.22;;
13255;SDS011;37913;48.370;10.930;2023-07-20T05:58:20;89.20;;;43.40;;
13255;SDS011;37913;48.370;10.930;2023-07-20T06:00:47;83.28;;;42.80;;
13255;SDS011;37913;48.370;10.930;2023-07-20T06:03:17;86.47;;;43.08;;
13255;SDS011;37913;48.370;10.930;2023-07-20T06:05:46;87.70;;;43.03;;
13255;SDS011;37913;48.370;10.930;2023-07-20T06:08:14;82.47;;;42.22;;
13255;SDS011;37913;48.370;10.930;2023-07-20T06:10:41;90.05;;;44.70;;
13255;SDS011;37913;48.370;10.930;2023-07-20T06:13:14;90.38;;;44.05;;
13255;SDS011;37913;48.370;10.930;2023-07-20T06:15:41;82.63;;;42.40;;
13255;SDS011;37913;48.370;10.930;2023-07-20T06:18:08;90.43;;;44.65;;
13255;SDS011;37913;48.370;10.930;2023-07-20T06:20:36;94.60;;;45.65;;
13255;SDS011;37913;48.370;10.930;2023-07-20T06:23:03;86.13;;;44.35;;
13255;SDS011;37913;48.370;10.930;2023-07-20T06:25:31;93.53;;;45.55;;
13255;SDS011;37913;48.370;10.930;2023-07-20T06:27:58;86.20;;;44.50;;
13255;SDS011;37913;48.370;10.930;2023-07-20T06:30:25;88.18;;;45.70;;
13255;SDS011;37913;48.370;10.930;2023-07-20T06:32:52;88.03;;;46.17;;
13255;SDS011;37913;48.370;10.930;2023-07-20T06:35:19;81.25;;;44.33;;
13255;SDS011;37913;48.370;10.930;2023-07-20T06:37:47;99.57;;;49.08;;
13255;SDS011;37913;48.370;10.930;2023-07-20T06:40:14;76.07;;;44.08;;
13255;SDS011;37913;48.370;10.930;2023-07-20T06:42:43;80.07;;;44.13;;
13255;SDS011;37913;48.370;10.930;2023-07-20T06:45:12;86.45;;;46.08;;
13255;SDS011;37913;48.370;10.930;2023-07-20T06:47:39;89.25;;;47.03;;
13255;SDS011;37913;48.370;10.930;2023-07-20T06:50:07;82.13;;;45.70;;
13255;SDS011;37913;48.370;10.930;2023-07-20T06:52:37;97.03;;;48.90;;
13255;SDS011;37913;48.370;10.930;2023-07-20T06:55:05;87.55;;;47.08;;
13255;SDS011;37913;48.370;10.930;2023-07-20T06:57:35;94.00;;;48.22;;
13255;SDS011;37913;48.370;10.930;2023-07-20T07:00:04;99.97;;;49.53;;
13255;SDS011;37913;48.370;10.930;2023-07-20T07:02:32;101.63;;;50.03;;
13255;SDS011;37913;48.370;10.930;2023-07-20T07:04:59;101.18;;;51.05;;
13255;SDS011;37913;48.370;10.930;2023-07-20T07:07:26;109.35;;;51.72;;
13255;SDS011;37913;48.370;10.930;2023-07-20T07:09:55;92.07;;;48.22;;
13255;SDS011;37913;48.370;10.930;2023-07-20T07:12:22;95.78;;;48.83;;
13255;SDS011;37913;48.370;10.930;2023-07-20T07:14:49;78.68;;;44.95;;
13255;SDS011;37913;48.370;10.930;2023-07-20T07:17:18;95.20;;;48.22;;
13255;SDS011;37913;48.370;10.930;2023-07-20T07:19:45;87.15;;;47.20;;
13255;SDS011;37913;48.370;10.930;2023-07-20T07:22:14;84.40;;;46.35;;
13255;SDS011;37913;48.370;10.930;2023-07-20T07:24:41;82.95;;;47.10;;
13255;SDS011;37913;48.370;10.930;2023-07-20T07:27:09;89.32;;;46.38;;
13255;SDS011;37913;48.370;10.930;2023-07-20T07:29:36;82.95;;;45.30;;
13255;SDS011;37913;48.370;10.930;2023-07-20T07:32:03;84.10;;;45.10;;
13255;SDS011;37913;48.370;10.930;2023-07-20T07:34:34;90.35;;;46.05;;
13255;SDS011;37913;48.370;10.930;2023-07-20T07:37:01;94.03;;;47.45;;
13255;SDS011;37913;48.370;10.930;2023-07-20T07:39:29;81.53;;;45.55;;
13255;SDS011;37913;48.370;10.930;2023-07-20T07:41:57;84.45;;;47.00;;
13255;SDS011;37913;48.370;10.930;2023-07-20T07:44:25;85.25;;;48.15;;
13255;SDS011;37913;48.370;10.930;2023-07-20T07:46:53;83.07;;;47.35;;
13255;SDS011;37913;48.370;10.930;2023-07-20T07:49:20;111.15;;;55.40;;
13255;SDS011;37913;48.370;10.930;2023-07-20T07:51:48;80.15;;;48.72;;
13255;SDS011;37913;48.370;10.930;2023-07-20T07:54:15;83.95;;;49.17;;
13255;SDS011;37913;48.370;10.930;2023-07-20T07:56:46;85.60;;;49.55;;
13255;SDS011;37913;48.370;10.930;2023-07-20T07:59:13;91.93;;;52.45;;
13255;SDS011;37913;48.370;10.930;2023-07-20T08:01:40;91.25;;;52.55;;
13255;SDS011;37913;48.370;10.930;2023-07-20T08:04:07;83.38;;;51.05;;
13255;SDS011;37913;48.370;10.930;2023-07-20T08:06:34;97.00;;;54.92;;
13255;SDS011;37913;48.370;10.930;2023-07-20T08:09:04;84.90;;;52.83;;
13255;SDS011;37913;48.370;10.930;2023-07-20T08:11:35;95.53;;;56.30;;
13255;SDS011;37913;48.370;10.930;2023-07-20T08:14:02;87.57;;;54.58;;
13255;SDS011;37913;48.370;10.930;2023-07-20T08:16:29;86.45;;;55.20;;
13255;SDS011;37913;48.370;10.930;2023-07-20T08:18:56;85.10;;;55.30;;
13255;SDS011;37913;48.370;10.930;2023-07-20T08:21:25;90.13;;;56.83;;
13255;SDS011;37913;48.370;10.930;2023-07-20T08:23:55;89.93;;;58.80;;
13255;SDS011;37913;48.370;10.930;2023-07-20T08:26:25;90.40;;;57.97;;
13255;SDS011;37913;48.370;10.930;2023-07-20T08:28:53;91.63;;;58.72;;
13255;SDS011;37913;48.370;10.930;2023-07-20T08:31:20;100.70;;;60.25;;
13255;SDS011;37913;48.370;10.930;2023-07-20T08:33:48;90.38;;;69.93;;
13255;SDS011;37913;48.370;10.930;2023-07-20T08:36:16;93.25;;;61.53;;
13255;SDS011;37913;48.370;10.930;2023-07-20T08:38:44;99.88;;;64.72;;
13255;SDS011;37913;48.370;10.930;2023-07-20T08:41:11;96.22;;;65.80;;
13255;SDS011;37913;48.370;10.930;2023-07-20T08:43:40;94.85;;;69.55;;
13255;SDS011;37913;48.370;10.930;2023-07-20T08:46:11;98.40;;;72.28;;
13255;SDS011;37913;48.370;10.930;2023-07-20T08:48:39;99.13;;;75.45;;
13255;SDS011;37913;48.370;10.930;2023-07-20T08:51:11;102.18;;;77.53;;
13255;SDS011;37913;48.370;10.930;2023-07-20T08:53:40;97.13;;;78.50;;
13255;SDS011;37913;48.370;10.930;2023-07-20T08:56:06;109.35;;;82.03;;
13255;SDS011;37913;48.370;10.930;2023-07-20T08:58:36;97.00;;;80.93;;
13255;SDS011;37913;48.370;10.930;2023-07-20T09:01:06;94.65;;;81.75;;
13255;SDS011;37913;48.370;10.930;2023-07-20T09:03:34;125.80;;;90.35;;
13255;SDS011;37913;48.370;10.930;2023-07-20T09:06:11;98.05;;;84.60;;
13255;SDS011;37913;48.370;10.930;2023-07-20T09:08:38;103.28;;;89.22;;
13255;SDS011;37913;48.370;10.930;2023-07-20T09:11:07;109.55;;;90.72;;
13255;SDS011;37913;48.370;10.930;2023-07-20T09:13:34;108.22;;;92.22;;
13255;SDS011;37913;48.370;10.930;2023-07-20T09:16:02;111.72;;;93.32;;
13255;SDS011;37913;48.370;10.930;2023-07-20T09:18:32;97.35;;;87.20;;
13255;SDS011;37913;48.370;10.930;2023-07-20T09:21:01;98.43;;;87.72;;
13255;SDS011;37913;48.370;10.930;2023-07-20T09:23:30;113.70;;;86.47;;
13255;SDS011;37913;48.370;10.930;2023-07-20T09:25:57;97.38;;;83.28;;
13255;SDS011;37913;48.370;10.930;2023-07-20T09:28:25;94.82;;;83.05;;
13255;SDS011;37913;48.370;10.930;2023-07-20T09:30:54;99.15;;;84.18;;
13255;SDS011;37913;48.370;10.930;2023-07-20T09:33:22;111.72;;;90.30;;
13255;SDS011;37913;48.370;10.930;2023-07-20T09:35:50;102.38;;;90.68;;
13255;SDS011;37913;48.370;10.930;2023-07-20T09:38:17;97.55;;;87.40;;
13255;SDS011;37913;48.370;10.930;2023-07-20T09:40:46;100.82;;;90.18;;
13255;SDS011;37913;48.370;10.930;2023-07-20T09:43:19;100.13;;;89.28;;
13255;SDS011;37913;48.370;10.930;2023-07-20T09:45:46;108.03;;;95.28;;
13255;SDS011;37913;48.370;10.930;2023-07-20T09:48:16;108.55;;;96.93;;
13255;SDS011;37913;48.370;10.930;2023-07-20T09:50:48;109.70;;;98.32;;
13255;SDS011;37913;48.370;10.930;2023-07-20T09:53:17;114.13;;;102.80;;
13255;SDS011;37913;48.370;10.930;2023-07-20T09:55:45;107.65;;;96.40;;
13255;SDS011;37913;48.370;10.930;2023-07-20T09:58:15;107.53;;;96.35;;
13255;SDS011;37913;48.370;10.930;2023-07-20T10:00:43;106.43;;;95.72;;
13255;SDS011;37913;48.370;10.930;2023-07-20T10:03:14;112.13;;;100.80;;
13255;SDS011;37913;48.370;10.930;2023-07-20T10:05:46;116.30;;;104.78;;
13255;SDS011;37913;48.370;10.930;2023-07-20T10:08:19;112.30;;;100.22;;
13255;SDS011;37913;48.370;10.930;2023-07-20T10:10:49;110.05;;;99.35;;
13255;SDS011;37913;48.370;10.930;2023-07-20T10:13:17;109.53;;;98.15;;
13255;SDS011;37913;48.370;10.930;2023-07-20T10:15:50;106.28;;;95.38;;
13255;SDS011;37913;48.370;10.930;2023-07-20T10:18:22;111.43;;;99.88;;
13255;SDS011;37913;48.370;10.930;2023-07-20T10:20:53;109.85;;;99.20;;
13255;SDS011;37913;48.370;10.930;2023-07-20T10:23:22;114.88;;;100.53;;
13255;SDS011;37913;48.370;10.930;2023-07-20T10:25:49;107.97;;;97.22;;
13255;SDS011;37913;48.370;10.930;2023-07-20T10:28:17;107.22;;;97.13;;
13255;SDS011;37913;48.370;10.930;2023-07-20T10:30:44;98.90;;;89.68;;
13255;SDS011;37913;48.370;10.930;2023-07-20T10:33:12;102.70;;;91.60;;
13255;SDS011;37913;48.370;10.930;2023-07-20T10:35:51;97.93;;;87.43;;
13255;SDS011;37913;48.370;10.930;2023-07-20T10:38:19;110.03;;;89.28;;
13255;SDS011;37913;48.370;10.930;2023-07-20T10:41:16;99.80;;;81.25;;
13255;SDS011;37913;48.370;10.930;2023-07-20T10:43:44;88.20;;;75.93;;
13255;SDS011;37913;48.370;10.930;2023-07-20T10:46:13;95.90;;;77.47;;
13255;SDS011;37913;48.370;10.930;2023-07-20T10:48:59;94.70;;;72.65;;
13255;SDS011;37913;48.370;10.930;2023-07-20T10:51:28;86.75;;;65.25;;
13255;SDS011;37913;48.370;10.930;2023-07-20T10:53:56;97.22;;;65.40;;
13255;SDS011;37913;48.370;10.930;2023-07-20T10:56:27;91.18;;;61.92;;
13255;SDS011;37913;48.370;10.930;2023-07-20T10:58:57;87.15;;;58.88;;
13255;SDS011;37913;48.370;10.930;2023-07-20T11:01:36;91.80;;;59.60;;
13255;SDS011;37913;48.370;10.930;2023-07-20T11:04:09;107.90;;;62.88;;
13255;SDS011;37913;48.370;10.930;2023-07-20T11:06:36;105.20;;;63.58;;
13255;SDS011;37913;48.370;10.930;2023-07-20T11:09:13;98.45;;;61.65;;
13255;SDS011;37913;48.370;10.930;2023-07-20T11:11:49;91.95;;;60.22;;
13255;SDS011;37913;48.370;10.930;2023-07-20T11:14:23;92.68;;;57.42;;
13255;SDS011;37913;48.370;10.930;2023-07-20T11:19:24;81.47;;;55.00;;
13255;SDS011;37913;48.370;10.930;2023-07-20T11:21:52;81.60;;;55.80;;
13255;SDS011;37913;48.370;10.930;2023-07-20T11:26:54;83.15;;;53.88;;
13255;SDS011;37913;48.370;10.930;2023-07-20T11:32:11;90.78;;;56.70;;
13255;SDS011;37913;48.370;10.930;2023-07-20T11:34:40;93.68;;;58.47;;
13255;SDS011;37913;48.370;10.930;2023-07-20T11:37:08;94.68;;;62.50;;
13255;SDS011;37913;48.370;10.930;2023-07-20T11:39:39;87.50;;;64.32;;
13255;SDS011;37913;48.370;10.930;2023-07-20T11:42:15;97.28;;;70.63;;
13255;SDS011;37913;48.370;10.930;2023-07-20T11:44:51;100.10;;;73.95;;
13255;SDS011;37913;48.370;10.930;2023-07-20T11:47:18;94.28;;;74.10;;
13255;SDS011;37913;48.370;10.930;2023-07-20T11:49:46;91.75;;;74.68;;
13255;SDS011;37913;48.370;10.930;2023-07-20T11:52:19;89.32;;;75.75;;
13255;SDS011;37913;48.370;10.930;2023-07-20T11:54:46;95.85;;;82.05;;
13255;SDS011;37913;48.370;10.930;2023-07-20T11:57:19;100.32;;;89.35;;
13255;SDS011;37913;48.370;10.930;2023-07-20T11:59:52;106.47;;;95.45;;
13255;SDS011;37913;48.370;10.930;2023-07-20T12:02:22;110.20;;;100.03;;
13255;SDS011;37913;48.370;10.930;2023-07-20T12:04:51;105.22;;;94.45;;
13255;SDS011;37913;48.370;10.930;2023-07-20T12:07:18;94.72;;;84.95;;
13255;SDS011;37913;48.370;10.930;2023-07-20T12:10:02;90.18;;;80.22;;
13255;SDS011;37913;48.370;10.930;2023-07-20T12:12:32;101.15;;;83.57;;
13255;SDS011;37913;48.370;10.930;2023-07-20T12:15:12;96.40;;;85.00;;
13255;SDS011;37913;48.370;10.930;2023-07-20T12:17:41;94.32;;;83.97;;
13255;SDS011;37913;48.370;10.930;2023-07-20T12:20:09;102.05;;;91.32;;
13255;SDS011;37913;48.370;10.930;2023-07-20T12:22:38;109.78;;;98.13;;
13255;SDS011;37913;48.370;10.930;2023-07-20T12:25:06;108.88;;;98.03;;
13255;SDS011;37913;48.370;10.930;2023-07-20T12:27:36;109.50;;;99.53;;
13255;SDS011;37913;48.370;10.930;2023-07-20T12:30:04;117.18;;;105.85;;
13255;SDS011;37913;48.370;10.930;2023-07-20T12:32:33;121.10;;;109.45;;
13255;SDS011;37913;48.370;10.930;2023-07-20T12:35:01;122.28;;;111.05;;
13255;SDS011;37913;48.370;10.930;2023-07-20T12:37:27;122.50;;;111.38;;
13255;SDS011;37913;48.370;10.930;2023-07-20T12:39:55;122.43;;;111.00;;
13255;SDS011;37913;48.370;10.930;2023-07-20T12:42:22;114.75;;;103.65;;
13255;SDS011;37913;48.370;10.930;2023-07-20T12:44:50;112.70;;;101.97;;
13255;SDS011;37913;48.370;10.930;2023-07-20T12:47:17;123.72;;;105.07;;
13255;SDS011;37913;48.370;10.930;2023-07-20T12:49:44;107.53;;;96.07;;
13255;SDS011;37913;48.370;10.930;2023-07-20T12:52:11;106.05;;;94.57;;
13255;SDS011;37913;48.370;10.930;2023-07-20T12:54:38;105.78;;;94.40;;
13255;SDS011;37913;48.370;10.930;2023-07-20T12:57:06;108.80;;;94.03;;
13255;SDS011;37913;48.370;10.930;2023-07-20T12:59:33;98.28;;;87.93;;
13255;SDS011;37913;48.370;10.930;2023-07-20T13:02:01;105.82;;;91.60;;
13255;SDS011;37913;48.370;10.930;2023-07-20T13:04:29;100.80;;;90.13;;
13255;SDS011;37913;48.370;10.930;2023-07-20T13:06:56;94.15;;;82.95;;
13255;SDS011;37913;48.370;10.930;2023-07-20T13:09:23;91.10;;;80.72;;
13255;SDS011;37913;48.370;10.930;2023-07-20T13:11:50;96.78;;;75.13;;
13255;SDS011;37913;48.370;10.930;2023-07-20T13:14:17;96.32;;;73.57;;
13255;SDS011;37913;48.370;10.930;2023-07-20T13:16:46;90.03;;;75.28;;
13255;SDS011;37913;48.370;10.930;2023-07-20T13:19:15;101.03;;;74.85;;
13255;SDS011;37913;48.370;10.930;2023-07-20T13:21:42;103.45;;;75.60;;
13255;SDS011;37913;48.370;10.930;2023-07-20T13:24:08;88.65;;;73.15;;
13255;SDS011;37913;48.370;10.930;2023-07-20T13:26:35;86.60;;;73.10;;
13255;SDS011;37913;48.370;10.930;2023-07-20T13:29:02;91.78;;;78.80;;
13255;SDS011;37913;48.370;10.930;2023-07-20T13:31:31;98.53;;;82.80;;
13255;SDS011;37913;48.370;10.930;2023-07-20T13:33:59;93.70;;;83.45;;
13255;SDS011;37913;48.370;10.930;2023-07-20T13:36:27;93.88;;;82.90;;
13255;SDS011;37913;48.370;10.930;2023-07-20T13:38:54;90.18;;;80.68;;
13255;SDS011;37913;48.370;10.930;2023-07-20T13:41:21;97.00;;;86.43;;
13255;SDS011;37913;48.370;10.930;2023-07-20T13:43:48;98.97;;;88.63;;
13255;SDS011;37913;48.370;10.930;2023-07-20T13:46:15;100.20;;;89.22;;
13255;SDS011;37913;48.370;10.930;2023-07-20T13:48:42;99.70;;;88.85;;
13255;SDS011;37913;48.370;10.930;2023-07-20T13:51:08;104.93;;;88.15;;
13255;SDS011;37913;48.370;10.930;2023-07-20T13:53:37;93.00;;;81.07;;
13255;SDS011;37913;48.370;10.930;2023-07-20T13:56:04;93.90;;;76.25;;
13255;SDS011;37913;48.370;10.930;2023-07-20T13:58:31;92.18;;;73.57;;
13255;SDS011;37913;48.370;10.930;2023-07-20T14:00:58;99.07;;;73.47;;
13255;SDS011;37913;48.370;10.930;2023-07-20T14:03:25;116.75;;;74.45;;
13255;SDS011;37913;48.370;10.930;2023-07-20T14:05:52;91.50;;;66.50;;
13255;SDS011;37913;48.370;10.930;2023-07-20T14:08:19;94.95;;;66.30;;
13255;SDS011;37913;48.370;10.930;2023-07-20T14:10:48;95.35;;;66.15;;
13255;SDS011;37913;48.370;10.930;2023-07-20T14:13:15;96.82;;;66.55;;
13255;SDS011;37913;48.370;10.930;2023-07-20T14:15:42;96.90;;;65.35;;
13255;SDS011;37913;48.370;10.930;2023-07-20T14:18:10;98.07;;;63.85;;
13255;SDS011;37913;48.370;10.930;2023-07-20T14:20:36;93.50;;;60.55;;